createdAt,value
2022-08-17T00:01:32.753Z,5.50
2022-08-17T00:04:21.102Z,5.53
2022-08-17T00:06:49.463Z,5.50
2022-08-17T00:09:18.939Z,5.63
2022-08-17T00:12:34.956Z,5.67
2022-08-17T00:14:34.947Z,5.43
2022-08-17T00:17:03.910Z,5.50
2022-08-17T00:19:32.469Z,5.60
2022-08-17T00:22:34.061Z,5.53
2022-08-17T00:24:47.457Z,6.43
2022-08-17T00:27:14.106Z,5.70
2022-08-17T00:29:40.719Z,6.13
2022-08-17T00:33:12.632Z,5.23
2022-08-17T00:34:54.219Z,5.67
2022-08-17T00:37:20.826Z,5.73
2022-08-17T00:39:47.522Z,5.70
2022-08-17T00:42:16.984Z,5.50
2022-08-17T00:44:43.495Z,6.03
2022-08-17T00:47:10.027Z,5.60
2022-08-17T00:49:36.682Z,5.67
2022-08-17T00:52:11.614Z,5.70
2022-08-17T00:54:40.983Z,5.57
2022-08-17T00:57:12.054Z,5.57
2022-08-17T00:59:41.677Z,5.80
2022-08-17T01:02:10.041Z,6.00
2022-08-17T01:04:37.581Z,6.30
2022-08-17T01:07:05.676Z,5.60
2022-08-17T01:09:33.373Z,5.80
2022-08-17T01:12:00.180Z,6.43
2022-08-17T01:14:26.858Z,5.60
2022-08-17T01:16:54.686Z,6.03
2022-08-17T01:19:23.985Z,5.60
2022-08-17T01:21:55.362Z,5.80
2022-08-17T01:24:22.101Z,6.07
2022-08-17T01:26:48.785Z,6.13
2022-08-17T01:29:16.705Z,5.50
2022-08-17T01:31:47.606Z,6.07
2022-08-17T01:34:16.338Z,5.87
2022-08-17T01:36:46.661Z,6.27
2022-08-17T01:39:26.494Z,5.47
2022-08-17T01:41:59.303Z,5.73
2022-08-17T01:44:26.918Z,6.10
2022-08-17T01:46:54.459Z,5.43
2022-08-17T01:49:21.128Z,6.13
2022-08-17T01:51:47.762Z,5.97
2022-08-17T01:54:17.284Z,5.93
2022-08-17T01:56:47.742Z,6.33
2022-08-17T01:59:15.548Z,6.40
2022-08-17T02:01:43.664Z,6.37
2022-08-17T02:04:11.006Z,6.17
2022-08-17T02:06:45.312Z,6.13
2022-08-17T02:09:20.119Z,6.17
2022-08-17T02:11:52.322Z,6.23
2022-08-17T02:14:20.820Z,5.83
2022-08-17T02:16:47.405Z,5.87
2022-08-17T02:19:15.910Z,6.10
2022-08-17T02:21:47.058Z,6.03
2022-08-17T02:24:18.113Z,6.20
2022-08-17T02:27:05.326Z,6.67
2022-08-17T02:29:32.455Z,6.67
2022-08-17T02:32:00.163Z,6.33
2022-08-17T02:34:27.557Z,5.97
2022-08-17T02:36:54.085Z,5.93
2022-08-17T02:39:20.749Z,6.00
2022-08-17T02:41:47.392Z,5.60
2022-08-17T02:44:14.077Z,6.33
2022-08-17T02:47:01.038Z,6.30
2022-08-17T02:49:27.687Z,6.63
2022-08-17T02:51:54.255Z,5.83
2022-08-17T02:54:40.354Z,6.07
2022-08-17T02:57:07.363Z,6.23
2022-08-17T02:59:34.003Z,7.13
2022-08-17T03:02:00.697Z,6.40
2022-08-17T03:04:27.245Z,6.33
2022-08-17T03:06:53.954Z,5.60
2022-08-17T03:09:20.442Z,5.97
2022-08-17T03:11:47.633Z,5.87
2022-08-17T03:14:17.025Z,6.10
2022-08-17T03:16:44.905Z,5.70
2022-08-17T03:19:11.921Z,6.07
2022-08-17T03:21:38.509Z,6.00
2022-08-17T03:24:09.044Z,6.50
2022-08-17T03:26:35.835Z,6.70
2022-08-17T03:29:02.352Z,6.40
2022-08-17T03:31:28.945Z,6.70
2022-08-17T03:33:56.447Z,6.00
2022-08-17T03:36:23.605Z,6.90
2022-08-17T03:38:50.258Z,6.43
2022-08-17T03:41:17.691Z,5.97
2022-08-17T03:43:44.176Z,7.17
2022-08-17T03:46:35.164Z,6.23
2022-08-17T03:49:25.069Z,6.10
2022-08-17T03:52:10.668Z,6.07
2022-08-17T03:54:56.189Z,6.67
2022-08-17T03:57:23.306Z,6.20
2022-08-17T03:59:50.430Z,6.43
2022-08-17T04:02:31.658Z,6.70
2022-08-17T04:04:58.722Z,6.40
2022-08-17T04:07:27.494Z,6.87
2022-08-17T04:09:54.171Z,6.83
2022-08-17T04:12:22.367Z,6.53
2022-08-17T04:14:52.945Z,6.83
2022-08-17T04:17:26.986Z,6.60
2022-08-17T04:19:54.744Z,7.07
2022-08-17T04:22:32.790Z,7.33
2022-08-17T04:25:17.089Z,6.03
2022-08-17T04:27:43.653Z,7.10
2022-08-17T04:30:10.877Z,6.50
2022-08-17T04:33:05.012Z,6.50
2022-08-17T04:35:38.776Z,6.10
2022-08-17T04:38:06.565Z,6.63
2022-08-17T04:40:51.950Z,6.33
2022-08-17T04:43:20.987Z,6.27
2022-08-17T04:45:55.783Z,7.33
2022-08-17T04:48:35.255Z,7.07
2022-08-17T04:51:06.947Z,7.53
2022-08-17T04:53:33.559Z,6.80
2022-08-17T04:56:00.060Z,7.10
2022-08-17T04:58:26.740Z,7.03
2022-08-17T05:00:53.544Z,6.77
2022-08-17T05:03:20.089Z,7.23
2022-08-17T05:05:50.039Z,7.30
2022-08-17T05:08:18.988Z,6.80
2022-08-17T05:10:46.917Z,6.93
2022-08-17T05:13:22.376Z,7.47
2022-08-17T05:15:57.092Z,7.30
2022-08-17T05:18:24.451Z,7.03
2022-08-17T05:20:52.481Z,7.47
2022-08-17T05:23:21.238Z,7.53
2022-08-17T05:25:50.421Z,7.47
2022-08-17T05:28:18.899Z,7.60
2022-08-17T05:30:50.651Z,7.77
2022-08-17T05:33:21.254Z,8.40
2022-08-17T05:35:50.765Z,7.07
2022-08-17T05:38:19.633Z,7.60
2022-08-17T05:40:46.729Z,7.40
2022-08-17T05:43:25.303Z,8.00
2022-08-17T05:46:15.806Z,7.60
2022-08-17T05:48:51.704Z,7.60
2022-08-17T05:51:43.522Z,7.47
2022-08-17T05:54:47.764Z,7.73
2022-08-17T05:57:39.919Z,7.37
2022-08-17T06:00:19.295Z,7.50
2022-08-17T06:02:53.009Z,7.70
2022-08-17T06:05:52.515Z,7.03
2022-08-17T06:08:31.109Z,7.50
2022-08-17T06:11:16.381Z,7.10
2022-08-17T06:14:08.204Z,7.00
2022-08-17T06:16:39.069Z,7.27
2022-08-17T06:19:13.063Z,6.53
2022-08-17T06:21:42.570Z,6.47
2022-08-17T06:24:18.313Z,6.43
2022-08-17T06:26:45.625Z,6.27
2022-08-17T06:29:52.589Z,6.53
2022-08-17T06:32:19.424Z,6.17
2022-08-17T06:34:46.417Z,6.37
2022-08-17T06:37:28.562Z,5.90
2022-08-17T06:40:20.174Z,6.20
2022-08-17T06:43:13.489Z,7.50
2022-08-17T06:45:58.715Z,7.37
2022-08-17T06:48:31.061Z,7.83
2022-08-17T06:51:15.040Z,6.33
2022-08-17T06:54:05.395Z,6.30
2022-08-17T06:56:53.169Z,6.67
2022-08-17T06:59:26.248Z,6.47
2022-08-17T07:02:05.425Z,7.00
2022-08-17T07:04:34.432Z,7.40
2022-08-17T07:07:27.883Z,6.13
2022-08-17T07:09:57.475Z,6.17
2022-08-17T07:12:38.553Z,6.33
2022-08-17T07:15:16.582Z,6.13
2022-08-17T07:17:47.448Z,6.50
2022-08-17T07:20:17.741Z,7.80
2022-08-17T07:23:06.269Z,6.13
2022-08-17T07:25:33.048Z,6.53
2022-08-17T07:28:02.548Z,5.80
2022-08-17T07:30:47.616Z,5.40
2022-08-17T07:33:32.491Z,6.63
2022-08-17T07:35:59.363Z,6.70
2022-08-17T07:38:28.516Z,6.10
2022-08-17T07:40:59.930Z,6.07
2022-08-17T07:43:41.310Z,6.63
2022-08-17T07:46:36.756Z,5.73
2022-08-17T07:49:03.535Z,7.13
2022-08-17T07:51:39.214Z,8.27
2022-08-17T07:54:15.258Z,6.57
2022-08-17T07:56:41.856Z,6.20
2022-08-17T07:59:18.240Z,6.20
2022-08-17T08:02:01.209Z,6.30
2022-08-17T08:04:59.369Z,5.50
2022-08-17T08:07:32.018Z,5.10
2022-08-17T08:10:12.449Z,4.90
2022-08-17T08:12:46.246Z,4.57
2022-08-17T08:15:18.983Z,4.63
2022-08-17T08:17:57.641Z,4.03
2022-08-17T08:20:53.120Z,4.97
2022-08-17T08:23:39.650Z,4.97
2022-08-17T08:26:18.860Z,4.67
2022-08-17T08:29:01.616Z,4.03
2022-08-17T08:31:43.358Z,4.07
2022-08-17T08:35:00.860Z,4.10
2022-08-17T08:37:32.602Z,3.90
2022-08-17T08:40:35.678Z,13.07
2022-08-17T08:43:40.420Z,4.83
2022-08-17T08:46:28.556Z,3.73
2022-08-17T08:49:45.138Z,3.70
2022-08-17T08:52:31.148Z,3.30
2022-08-17T08:55:21.940Z,3.57
2022-08-17T08:58:05.226Z,3.20
2022-08-17T09:00:35.770Z,3.80
2022-08-17T09:03:37.602Z,3.83
2022-08-17T09:06:38.533Z,6.57
2022-08-17T09:09:25.109Z,3.63
2022-08-17T09:12:02.320Z,3.63
2022-08-17T09:14:45.157Z,4.10
2022-08-17T09:17:16.412Z,3.47
2022-08-17T09:20:11.354Z,3.60
2022-08-17T09:22:48.053Z,3.60
2022-08-17T09:25:22.376Z,3.87
2022-08-17T09:28:01.081Z,3.30
2022-08-17T09:30:30.003Z,3.33
2022-08-17T09:32:59.510Z,3.23
2022-08-17T09:35:36.904Z,3.00
2022-08-17T09:38:22.126Z,3.60
2022-08-17T09:41:06.481Z,3.40
2022-08-17T09:43:45.224Z,3.67
2022-08-17T09:46:19.969Z,3.67
2022-08-17T09:49:15.070Z,3.33
2022-08-17T09:51:45.602Z,3.90
2022-08-17T09:54:40.528Z,3.47
2022-08-17T09:57:32.975Z,3.50
2022-08-17T10:00:07.954Z,3.63
2022-08-17T10:02:43.120Z,3.83
2022-08-17T10:05:28.558Z,3.77
2022-08-17T10:08:07.086Z,3.80
2022-08-17T10:10:39.562Z,3.60
2022-08-17T10:13:19.762Z,9.47
2022-08-17T10:16:09.410Z,4.30
2022-08-17T10:18:54.328Z,3.80
2022-08-17T10:21:40.578Z,3.40
2022-08-17T10:24:36.510Z,4.90
2022-08-17T10:27:09.510Z,4.40
2022-08-17T10:29:59.876Z,3.97
2022-08-17T10:32:37.752Z,4.77
2022-08-17T10:35:37.096Z,4.20
2022-08-17T10:38:30.244Z,4.43
2022-08-17T10:40:59.706Z,4.43
2022-08-17T10:43:36.228Z,4.80
2022-08-17T10:46:31.159Z,5.40
2022-08-17T10:49:17.119Z,5.63
2022-08-17T10:51:47.814Z,5.60
2022-08-17T10:54:47.339Z,5.50
2022-08-17T10:57:29.215Z,5.87
2022-08-17T10:59:57.431Z,5.97
2022-08-17T11:02:54.779Z,5.73
2022-08-17T11:05:43.866Z,6.37
2022-08-17T11:08:48.686Z,6.57
2022-08-17T11:11:34.558Z,6.23
2022-08-17T11:14:25.767Z,6.47
2022-08-17T11:17:12.223Z,6.43
2022-08-17T11:19:42.113Z,7.27
2022-08-17T11:22:33.324Z,7.43
2022-08-17T11:25:14.857Z,7.47
2022-08-17T11:27:43.397Z,7.47
2022-08-17T11:30:48.884Z,6.87
2022-08-17T11:33:34.160Z,8.40
2022-08-17T11:36:06.488Z,9.33
2022-08-17T11:38:58.012Z,8.90
2022-08-17T11:41:35.108Z,7.43
2022-08-17T11:44:10.651Z,8.03
2022-08-17T11:47:40.149Z,8.30
2022-08-17T11:50:44.096Z,9.07
2022-08-17T11:53:39.778Z,10.37
2022-08-17T11:56:50.902Z,9.20
2022-08-17T11:59:43.816Z,10.23
2022-08-17T12:02:32.446Z,10.10
2022-08-17T12:05:14.614Z,10.17
2022-08-17T12:07:56.270Z,11.87
2022-08-17T12:10:32.004Z,13.30
2022-08-17T12:12:59.765Z,11.30
2022-08-17T12:15:34.917Z,12.17
2022-08-17T12:18:01.474Z,12.77
2022-08-17T12:20:38.122Z,11.03
2022-08-17T12:23:36.224Z,11.77
2022-08-17T12:26:12.278Z,11.73
2022-08-17T12:28:45.364Z,10.07
2022-08-17T12:31:25.102Z,12.83
2022-08-17T12:33:51.906Z,13.20
2022-08-17T12:36:25.918Z,14.70
2022-08-17T12:39:14.113Z,16.80
2022-08-17T12:41:47.470Z,14.93
2022-08-17T12:44:14.136Z,17.80
2022-08-17T12:46:52.370Z,16.30
2022-08-17T12:49:35.680Z,17.77
2022-08-17T12:52:05.760Z,19.13
2022-08-17T12:54:38.139Z,19.40
2022-08-17T12:57:09.775Z,16.87
2022-08-17T12:59:41.087Z,21.57
2022-08-17T13:02:11.061Z,17.27
2022-08-17T13:04:40.029Z,14.03
2022-08-17T13:07:07.006Z,20.90
2022-08-17T13:09:39.936Z,20.00
2022-08-17T13:12:07.999Z,19.67
2022-08-17T13:14:35.380Z,16.80
2022-08-17T13:17:09.691Z,17.57
2022-08-17T13:19:48.237Z,18.70
2022-08-17T13:22:15.006Z,19.97
2022-08-17T13:24:53.092Z,17.03
2022-08-17T13:27:22.058Z,13.40
2022-08-17T13:29:55.852Z,16.33
2022-08-17T13:32:46.537Z,18.57
2022-08-17T13:35:32.954Z,18.60
2022-08-17T13:38:36.033Z,16.23
2022-08-17T13:41:04.065Z,15.50
2022-08-17T13:43:48.591Z,17.67
2022-08-17T13:46:18.297Z,17.13
2022-08-17T13:48:44.907Z,21.73
2022-08-17T13:51:14.964Z,15.07
2022-08-17T13:53:41.523Z,23.37
2022-08-17T13:56:37.204Z,20.83
2022-08-17T13:59:36.361Z,17.13
2022-08-17T14:02:13.619Z,22.10
2022-08-17T14:04:42.309Z,19.70
2022-08-17T14:07:08.898Z,23.50
2022-08-17T14:09:47.245Z,24.93
2022-08-17T14:12:16.366Z,20.77
2022-08-17T14:14:44.653Z,20.47
2022-08-17T14:17:12.407Z,19.93
2022-08-17T14:19:39.630Z,23.83
2022-08-17T14:22:09.080Z,26.30
2022-08-17T14:24:43.943Z,25.40
2022-08-17T14:27:12.114Z,22.63
2022-08-17T14:29:41.020Z,20.40
2022-08-17T14:32:41.430Z,22.27
2022-08-17T14:35:09.757Z,24.07
2022-08-17T14:37:36.533Z,23.27
2022-08-17T14:40:07.665Z,25.33
2022-08-17T14:42:35.967Z,23.73
2022-08-17T14:45:06.297Z,21.37
2022-08-17T14:47:52.917Z,21.60
2022-08-17T14:50:22.371Z,22.30
2022-08-17T14:52:49.164Z,23.33
2022-08-17T14:55:20.738Z,24.03
2022-08-17T14:57:47.293Z,22.63
2022-08-17T15:00:17.004Z,20.63
2022-08-17T15:02:56.086Z,24.50
2022-08-17T15:05:24.930Z,27.03
2022-08-17T15:07:53.436Z,29.30
2022-08-17T15:10:20.276Z,27.93
2022-08-17T15:12:46.958Z,31.87
2022-08-17T15:15:16.500Z,31.20
2022-08-17T15:17:45.979Z,31.03
2022-08-17T15:20:15.889Z,30.30
2022-08-17T15:22:43.913Z,32.10
2022-08-17T15:25:11.003Z,34.77
2022-08-17T15:27:37.514Z,32.77
2022-08-17T15:30:05.730Z,33.47
2022-08-17T15:32:38.210Z,34.27
2022-08-17T15:35:07.444Z,31.93
2022-08-17T15:37:34.069Z,36.07
2022-08-17T15:40:01.219Z,39.33
2022-08-17T15:42:29.254Z,36.73
2022-08-17T15:44:55.950Z,31.47
2022-08-17T15:47:22.680Z,27.47
2022-08-17T15:49:49.219Z,34.10
2022-08-17T15:52:24.186Z,36.00
2022-08-17T15:54:55.398Z,37.13
2022-08-17T15:57:24.564Z,36.07
2022-08-17T15:59:55.368Z,39.57
2022-08-17T16:03:46.007Z,33.30
2022-08-17T16:05:23.444Z,32.50
2022-08-17T16:07:51.863Z,33.23
2022-08-17T16:10:19.347Z,33.53
2022-08-17T16:12:47.644Z,33.27
2022-08-17T16:15:14.597Z,29.20
2022-08-17T16:17:44.583Z,29.73
2022-08-17T16:20:20.004Z,27.23
2022-08-17T16:22:49.697Z,28.43
2022-08-17T16:25:53.053Z,28.20
2022-08-17T16:28:15.193Z,29.55
2022-08-17T16:30:42.156Z,32.03
2022-08-17T16:33:11.316Z,28.70
2022-08-17T16:35:38.002Z,26.97
2022-08-17T16:38:04.968Z,23.57
2022-08-17T16:40:36.056Z,30.80
2022-08-17T16:43:03.986Z,30.23
2022-08-17T16:45:36.713Z,26.43
2022-08-17T16:48:04.150Z,29.60
2022-08-17T16:50:32.024Z,25.43
2022-08-17T16:53:17.436Z,23.27
2022-08-17T16:55:45.685Z,29.00
2022-08-17T16:58:12.462Z,28.17
2022-08-17T17:00:42.527Z,30.50
2022-08-17T17:03:18.136Z,40.23
2022-08-17T17:05:58.004Z,41.37
2022-08-17T17:08:26.678Z,41.70
2022-08-17T17:10:56.023Z,39.90
2022-08-17T17:13:37.775Z,40.77
2022-08-17T17:16:29.326Z,41.67
2022-08-17T17:19:07.738Z,41.80
2022-08-17T17:22:07.512Z,40.10
2022-08-17T17:24:41.246Z,43.20
2022-08-17T17:27:17.799Z,43.27
2022-08-17T17:30:11.870Z,44.87
2022-08-17T17:32:48.647Z,45.90
2022-08-17T17:35:20.407Z,49.40
2022-08-17T17:37:47.553Z,45.57
2022-08-17T17:40:17.479Z,38.87
2022-08-17T17:42:45.059Z,41.67
2022-08-17T17:45:26.453Z,42.00
2022-08-17T17:47:53.257Z,39.17
2022-08-17T17:50:21.854Z,39.53
2022-08-17T17:53:09.029Z,36.90
2022-08-17T17:55:38.535Z,35.40
2022-08-17T17:58:26.443Z,37.93
2022-08-17T18:01:29.091Z,33.37
2022-08-17T18:04:17.042Z,35.80
2022-08-17T18:07:05.917Z,31.70
2022-08-17T18:10:02.000Z,35.33
2022-08-17T18:13:11.349Z,32.47
2022-08-17T18:15:51.134Z,35.10
2022-08-17T18:18:17.779Z,34.87
2022-08-17T18:20:53.699Z,32.97
2022-08-17T18:23:27.579Z,30.67
2022-08-17T18:25:55.004Z,32.40
2022-08-17T18:28:44.921Z,30.20
2022-08-17T18:31:21.745Z,29.60
2022-08-17T18:33:51.493Z,32.43
2022-08-17T18:36:33.375Z,31.73
2022-08-17T18:39:18.861Z,30.03
2022-08-17T18:41:48.586Z,27.93
2022-08-17T18:44:28.600Z,25.10
2022-08-17T18:47:16.770Z,24.97
2022-08-17T18:49:57.325Z,21.97
2022-08-17T18:52:24.095Z,28.67
2022-08-17T18:55:05.591Z,18.17
2022-08-17T18:57:37.950Z,28.20
2022-08-17T19:00:18.691Z,21.43
2022-08-17T19:02:57.658Z,25.27
2022-08-17T19:05:40.606Z,22.20
2022-08-17T19:08:25.897Z,27.00
2022-08-17T19:11:04.681Z,30.13
2022-08-17T19:13:34.140Z,28.87
2022-08-17T19:16:35.014Z,21.10
2022-08-17T19:19:17.093Z,30.17
2022-08-17T19:21:47.191Z,29.20
2022-08-17T19:24:23.467Z,29.07
2022-08-17T19:26:57.665Z,29.70
2022-08-17T19:29:32.237Z,33.43
2022-08-17T19:32:00.894Z,27.93
2022-08-17T19:34:33.871Z,28.93
2022-08-17T19:37:14.635Z,34.30
2022-08-17T19:39:49.840Z,34.00
2022-08-17T19:42:41.351Z,35.70
2022-08-17T19:45:29.615Z,35.97
2022-08-17T19:48:05.511Z,33.80
2022-08-17T19:50:41.465Z,34.40
2022-08-17T19:54:04.977Z,36.87
2022-08-17T19:56:41.910Z,34.47
2022-08-17T19:59:36.055Z,36.90
2022-08-17T20:02:19.934Z,35.83
2022-08-17T20:04:49.038Z,40.17
2022-08-17T20:07:20.399Z,39.50
2022-08-17T20:09:55.478Z,37.97
2022-08-17T20:12:31.491Z,29.07
2022-08-17T20:15:25.961Z,30.50
2022-08-17T20:17:53.026Z,23.10
2022-08-17T20:20:38.864Z,25.63
2022-08-17T20:23:12.609Z,27.93
2022-08-17T20:26:06.854Z,26.43
2022-08-17T20:28:35.313Z,31.73
2022-08-17T20:31:02.432Z,24.80
2022-08-17T20:33:35.016Z,24.80
2022-08-17T20:36:13.038Z,25.20
2022-08-17T20:38:46.008Z,25.23
2022-08-17T20:41:22.511Z,26.27
2022-08-17T20:43:55.362Z,24.43
2022-08-17T20:46:36.967Z,25.13
2022-08-17T20:49:27.077Z,25.87
2022-08-17T20:52:01.467Z,26.03
2022-08-17T20:55:02.816Z,31.83
2022-08-17T20:57:32.553Z,32.43
2022-08-17T21:00:14.998Z,33.20
2022-08-17T21:02:44.938Z,39.77
2022-08-17T21:05:34.598Z,36.90
2022-08-17T21:08:31.427Z,35.23
2022-08-17T21:11:00.069Z,32.03
2022-08-17T21:13:55.885Z,35.70
2022-08-17T21:16:30.877Z,38.57
2022-08-17T21:19:17.030Z,42.33
2022-08-17T21:22:03.215Z,38.53
2022-08-17T21:24:50.989Z,32.80
2022-08-17T21:27:23.941Z,35.17
2022-08-17T21:30:11.926Z,31.77
2022-08-17T21:32:40.496Z,31.60
2022-08-17T21:35:12.334Z,37.23
2022-08-17T21:37:39.144Z,36.50
2022-08-17T21:40:18.113Z,37.77
2022-08-17T21:43:17.944Z,37.10
2022-08-17T21:45:55.461Z,34.20
2022-08-17T21:48:24.612Z,41.00
2022-08-17T21:51:03.744Z,44.90
2022-08-17T21:53:58.110Z,43.73
2022-08-17T21:56:38.390Z,44.33
2022-08-17T21:59:20.197Z,46.17
2022-08-17T22:01:59.941Z,42.73
2022-08-17T22:04:29.604Z,45.13
2022-08-17T22:06:57.895Z,43.20
2022-08-17T22:09:33.721Z,44.17
2022-08-17T22:12:01.825Z,44.07
2022-08-17T22:14:54.299Z,45.53
2022-08-17T22:17:37.865Z,36.33
2022-08-17T22:20:18.158Z,31.80
2022-08-17T22:23:12.548Z,29.97
2022-08-17T22:25:57.597Z,28.83
2022-08-17T22:28:42.950Z,28.43
2022-08-17T22:31:14.522Z,28.73
2022-08-17T22:33:51.729Z,28.43
2022-08-17T22:36:34.717Z,26.33
2022-08-17T22:39:04.350Z,29.13
2022-08-17T22:41:32.065Z,28.33
2022-08-17T22:44:09.306Z,30.83
2022-08-17T22:46:39.767Z,27.03
2022-08-17T22:49:06.606Z,32.23
2022-08-17T22:51:33.284Z,30.40
2022-08-17T22:54:34.035Z,33.03
2022-08-17T22:57:21.932Z,30.50
2022-08-17T22:59:53.934Z,32.07
2022-08-17T23:02:25.735Z,32.20
2022-08-17T23:05:11.527Z,29.67
2022-08-17T23:07:38.412Z,29.43
2022-08-17T23:10:07.542Z,30.50
2022-08-17T23:12:39.813Z,27.77
2022-08-17T23:15:14.434Z,27.67
2022-08-17T23:17:42.061Z,28.87
2022-08-17T23:20:12.503Z,28.53
2022-08-17T23:22:51.089Z,29.37
2022-08-17T23:25:25.397Z,28.97
2022-08-17T23:27:52.170Z,29.43
2022-08-17T23:30:19.038Z,30.17
2022-08-17T23:32:53.674Z,30.00
2022-08-17T23:35:39.697Z,28.07
2022-08-17T23:38:09.379Z,29.50
2022-08-17T23:40:36.090Z,29.90
2022-08-17T23:43:06.012Z,30.60
2022-08-17T23:45:44.338Z,31.73
2022-08-17T23:48:10.854Z,27.97
2022-08-17T23:50:38.441Z,27.03
2022-08-17T23:53:05.910Z,27.60
2022-08-17T23:55:34.812Z,26.83
2022-08-17T23:58:03.970Z,28.23
